sensor_id;sensor_type;location;lat;lon;timestamp;pressure;altitude;pressure_sealevel;temperature;humidity
68654;BME280;55636;51.108;13.622;2023-01-04T00:00:59;101522.53;;;5.22;55.18
68654;BME280;55636;51.108;13.622;2023-01-04T00:02:01;101518.06;;;5.21;55.07
68654;BME280;55636;51.108;13.622;2023-01-04T00:03:04;101515.53;;;5.20;55.24
68654;BME280;55636;51.108;13.622;2023-01-04T00:04:06;101519.31;;;5.19;55.25
68654;BME280;55636;51.108;13.622;2023-01-04T00:05:08;101520.34;;;5.18;55.13
68654;BME280;55636;51.108;13.622;2023-01-04T00:06:13;101517.81;;;5.16;55.33
68654;BME280;55636;51.108;13.622;2023-01-04T00:07:15;101527.06;;;5.15;55.38
68654;BME280;55636;51.108;13.622;2023-01-04T00:08:18;101528.13;;;5.14;55.34
68654;BME280;55636;51.108;13.622;2023-01-04T00:09:20;101518.22;;;5.13;55.46
68654;BME280;55636;51.108;13.622;2023-01-04T00:10:22;101530.00;;;5.14;55.33
68654;BME280;55636;51.108;13.622;2023-01-04T00:11:25;101524.75;;;5.12;55.34
68654;BME280;55636;51.108;13.622;2023-01-04T00:12:27;101518.59;;;5.10;55.47
68654;BME280;55636;51.108;13.622;2023-01-04T00:13:30;101517.56;;;5.11;55.48
68654;BME280;55636;51.108;13.622;2023-01-04T00:14:33;101518.59;;;5.10;55.44
68654;BME280;55636;51.108;13.622;2023-01-04T00:15:35;101505.94;;;5.09;55.41
68654;BME280;55636;51.108;13.622;2023-01-04T00:16:38;101511.63;;;5.07;55.54
68654;BME280;55636;51.108;13.622;2023-01-04T00:17:40;101506.34;;;5.06;55.58
68654;BME280;55636;51.108;13.622;2023-01-04T00:18:43;101500.84;;;5.06;55.52
68654;BME280;55636;51.108;13.622;2023-01-04T00:19:46;101503.59;;;5.06;55.54
68654;BME280;55636;51.108;13.622;2023-01-04T00:20:48;101506.34;;;5.06;55.61
68654;BME280;55636;51.108;13.622;2023-01-04T00:21:50;101503.81;;;5.04;55.45
68654;BME280;55636;51.108;13.622;2023-01-04T00:22:52;101497.66;;;5.02;55.54
68654;BME280;55636;51.108;13.622;2023-01-04T00:23:58;101506.75;;;5.03;55.51
68654;BME280;55636;51.108;13.622;2023-01-04T00:25:01;101500.59;;;5.01;55.51
68654;BME280;55636;51.108;13.622;2023-01-04T00:26:10;101503.53;;;4.99;55.74
68654;BME280;55636;51.108;13.622;2023-01-04T00:27:13;101504.56;;;4.98;55.75
68654;BME280;55636;51.108;13.622;2023-01-04T00:28:15;101495.53;;;4.98;55.54
68654;BME280;55636;51.108;13.622;2023-01-04T00:29:18;101504.78;;;4.97;55.72
68654;BME280;55636;51.108;13.622;2023-01-04T00:30:20;101502.25;;;4.95;55.57
68654;BME280;55636;51.108;13.622;2023-01-04T00:31:23;101508.75;;;4.94;55.89
68654;BME280;55636;51.108;13.622;2023-01-04T00:32:26;101511.50;;;4.94;55.76
68654;BME280;55636;51.108;13.622;2023-01-04T00:33:28;101507.91;;;4.94;55.78
68654;BME280;55636;51.108;13.622;2023-01-04T00:34:30;101508.09;;;4.92;55.84
68654;BME280;55636;51.108;13.622;2023-01-04T00:35:33;101504.72;;;4.90;55.85
68654;BME280;55636;51.108;13.622;2023-01-04T00:36:47;101506.59;;;4.89;55.87
68654;BME280;55636;51.108;13.622;2023-01-04T00:37:49;101503.84;;;4.89;55.74
68654;BME280;55636;51.108;13.622;2023-01-04T00:38:53;101499.44;;;4.88;55.79
68654;BME280;55636;51.108;13.622;2023-01-04T00:40:10;101488.66;;;4.87;55.88
68654;BME280;55636;51.108;13.622;2023-01-04T00:41:12;101493.28;;;4.86;56.04
68654;BME280;55636;51.108;13.622;2023-01-04T00:42:35;101487.16;;;4.84;55.83
68654;BME280;55636;51.108;13.622;2023-01-04T00:43:37;101489.88;;;4.84;55.96
68654;BME280;55636;51.108;13.622;2023-01-04T00:44:40;101480.84;;;4.84;55.91
68654;BME280;55636;51.108;13.622;2023-01-04T00:45:42;101487.16;;;4.84;56.00
68654;BME280;55636;51.108;13.622;2023-01-04T00:46:44;101484.63;;;4.83;56.08
68654;BME280;55636;51.108;13.622;2023-01-04T00:47:47;101481.88;;;4.83;56.01
68654;BME280;55636;51.108;13.622;2023-01-04T00:48:49;101482.06;;;4.81;55.96
68654;BME280;55636;51.108;13.622;2023-01-04T00:50:01;101482.06;;;4.81;56.08
68654;BME280;55636;51.108;13.622;2023-01-04T00:51:04;101482.06;;;4.81;56.17
68654;BME280;55636;51.108;13.622;2023-01-04T00:52:07;101486.50;;;4.82;56.28
68654;BME280;55636;51.108;13.622;2023-01-04T00:53:10;101481.25;;;4.81;56.27
68654;BME280;55636;51.108;13.622;2023-01-04T00:54:14;101477.47;;;4.82;56.17
68654;BME280;55636;51.108;13.622;2023-01-04T00:55:16;101480.22;;;4.82;56.24
68654;BME280;55636;51.108;13.622;2023-01-04T00:56:19;101478.69;;;4.79;56.19
68654;BME280;55636;51.108;13.622;2023-01-04T00:57:21;101479.53;;;4.80;56.12
68654;BME280;55636;51.108;13.622;2023-01-04T00:58:23;101477.00;;;4.78;56.36
68654;BME280;55636;51.108;13.622;2023-01-04T00:59:26;101479.75;;;4.78;56.53
68654;BME280;55636;51.108;13.622;2023-01-04T01:00:28;101477.00;;;4.78;56.48
68654;BME280;55636;51.108;13.622;2023-01-04T01:01:32;101479.75;;;4.78;56.40
68654;BME280;55636;51.108;13.622;2023-01-04T01:02:34;101479.75;;;4.78;56.38
68654;BME280;55636;51.108;13.622;2023-01-04T01:03:37;101482.69;;;4.77;56.39
68654;BME280;55636;51.108;13.622;2023-01-04T01:04:40;101477.19;;;4.77;56.22
68654;BME280;55636;51.108;13.622;2023-01-04T01:05:42;101468.13;;;4.76;56.49
68654;BME280;55636;51.108;13.622;2023-01-04T01:06:47;101465.38;;;4.76;56.34
68654;BME280;55636;51.108;13.622;2023-01-04T01:07:50;101470.84;;;4.76;56.20
68654;BME280;55636;51.108;13.622;2023-01-04T01:08:52;101470.84;;;4.76;56.15
68654;BME280;55636;51.108;13.622;2023-01-04T01:09:55;101465.59;;;4.74;56.10
68654;BME280;55636;51.108;13.622;2023-01-04T01:11:04;101451.91;;;4.74;56.18
68654;BME280;55636;51.108;13.622;2023-01-04T01:12:07;101447.66;;;4.72;56.26
68654;BME280;55636;51.108;13.622;2023-01-04T01:13:09;101443.03;;;4.72;56.09
68654;BME280;55636;51.108;13.622;2023-01-04T01:14:22;101444.91;;;4.72;56.17
68654;BME280;55636;51.108;13.622;2023-01-04T01:15:24;101439.44;;;4.72;56.14
68654;BME280;55636;51.108;13.622;2023-01-04T01:16:26;101440.47;;;4.71;56.18
68654;BME280;55636;51.108;13.622;2023-01-04T01:17:49;101450.59;;;4.70;56.19
68654;BME280;55636;51.108;13.622;2023-01-04T01:18:51;101458.81;;;4.70;56.24
68654;BME280;55636;51.108;13.622;2023-01-04T01:19:54;101463.41;;;4.70;56.10
68654;BME280;55636;51.108;13.622;2023-01-04T01:20:56;101456.06;;;4.70;56.15
68654;BME280;55636;51.108;13.622;2023-01-04T01:21:58;101454.38;;;4.69;56.15
68654;BME280;55636;51.108;13.622;2023-01-04T01:23:00;101451.63;;;4.69;56.20
68654;BME280;55636;51.108;13.622;2023-01-04T01:24:03;101447.41;;;4.67;56.21
68654;BME280;55636;51.108;13.622;2023-01-04T01:25:05;101448.44;;;4.66;56.17
68654;BME280;55636;51.108;13.622;2023-01-04T01:26:10;101444.84;;;4.65;56.17
68654;BME280;55636;51.108;13.622;2023-01-04T01:27:13;101449.47;;;4.65;56.13
68654;BME280;55636;51.108;13.622;2023-01-04T01:28:15;101452.41;;;4.63;56.22
68654;BME280;55636;51.108;13.622;2023-01-04T01:29:17;101441.44;;;4.63;56.21
68654;BME280;55636;51.108;13.622;2023-01-04T01:30:20;101450.69;;;4.62;56.22
68654;BME280;55636;51.108;13.622;2023-01-04T01:31:24;101444.41;;;4.62;56.17
68654;BME280;55636;51.108;13.622;2023-01-04T01:32:28;101450.06;;;4.60;56.20
68654;BME280;55636;51.108;13.622;2023-01-04T01:33:30;101450.91;;;4.61;56.22
68654;BME280;55636;51.108;13.622;2023-01-04T01:34:32;101449.03;;;4.61;56.25
68654;BME280;55636;51.108;13.622;2023-01-04T01:35:35;101450.91;;;4.61;56.05
68654;BME280;55636;51.108;13.622;2023-01-04T01:36:37;101442.06;;;4.58;56.23
68654;BME280;55636;51.108;13.622;2023-01-04T01:37:39;101443.09;;;4.57;56.13
68654;BME280;55636;51.108;13.622;2023-01-04T01:38:43;101440.34;;;4.57;56.09
68654;BME280;55636;51.108;13.622;2023-01-04T01:39:45;101440.75;;;4.54;56.27
68654;BME280;55636;51.108;13.622;2023-01-04T01:40:48;101447.06;;;4.55;56.29
68654;BME280;55636;51.108;13.622;2023-01-04T01:41:50;101445.34;;;4.54;56.20
68654;BME280;55636;51.108;13.622;2023-01-04T01:42:53;101439.06;;;4.53;56.29
68654;BME280;55636;51.108;13.622;2023-01-04T01:45:31;101437.34;;;4.52;56.32
68654;BME280;55636;51.108;13.622;2023-01-04T01:46:48;101428.47;;;4.50;56.17
68654;BME280;55636;51.108;13.622;2023-01-04T01:47:52;101429.53;;;4.49;56.23
68654;BME280;55636;51.108;13.622;2023-01-04T01:49:01;101430.56;;;4.48;56.28
68654;BME280;55636;51.108;13.622;2023-01-04T01:50:16;101427.84;;;4.48;56.34
68654;BME280;55636;51.108;13.622;2023-01-04T01:51:20;101425.47;;;4.45;56.31
68654;BME280;55636;51.108;13.622;2023-01-04T01:52:26;101419.16;;;4.45;56.42
68654;BME280;55636;51.108;13.622;2023-01-04T01:53:34;101426.34;;;4.46;56.39
68654;BME280;55636;51.108;13.622;2023-01-04T01:54:42;101420.00;;;4.45;56.51
68654;BME280;55636;51.108;13.622;2023-01-04T01:55:47;101424.63;;;4.45;56.42
68654;BME280;55636;51.108;13.622;2023-01-04T01:56:52;101421.22;;;4.42;56.39
68654;BME280;55636;51.108;13.622;2023-01-04T01:57:57;101428.59;;;4.42;56.34
68654;BME280;55636;51.108;13.622;2023-01-04T01:59:01;101422.09;;;4.43;56.29
68654;BME280;55636;51.108;13.622;2023-01-04T02:00:06;101425.88;;;4.42;56.26
68654;BME280;55636;51.108;13.622;2023-01-04T02:01:17;101421.63;;;4.39;56.39
68654;BME280;55636;51.108;13.622;2023-01-04T02:02:19;101421.63;;;4.39;56.36
68654;BME280;55636;51.108;13.622;2023-01-04T02:03:34;101420.78;;;4.39;56.31
68654;BME280;55636;51.108;13.622;2023-01-04T02:04:42;101423.91;;;4.36;56.55
68654;BME280;55636;51.108;13.622;2023-01-04T02:05:47;101419.28;;;4.36;56.39
68654;BME280;55636;51.108;13.622;2023-01-04T02:06:53;101422.03;;;4.36;56.44
68654;BME280;55636;51.108;13.622;2023-01-04T02:07:59;101420.31;;;4.35;56.42
68654;BME280;55636;51.108;13.622;2023-01-04T02:09:03;101418.63;;;4.34;56.42
68654;BME280;55636;51.108;13.622;2023-01-04T02:10:06;101415.06;;;4.34;56.42
68654;BME280;55636;51.108;13.622;2023-01-04T02:11:09;101416.91;;;4.33;56.46
68654;BME280;55636;51.108;13.622;2023-01-04T02:12:12;101419.66;;;4.33;56.51
68654;BME280;55636;51.108;13.622;2023-01-04T02:13:18;101413.53;;;4.31;56.50
68654;BME280;55636;51.108;13.622;2023-01-04T02:14:22;101412.69;;;4.31;56.41
68654;BME280;55636;51.108;13.622;2023-01-04T02:15:40;101424.50;;;4.31;56.51
68654;BME280;55636;51.108;13.622;2023-01-04T02:18:09;101412.88;;;4.29;56.43
68654;BME280;55636;51.108;13.622;2023-01-04T02:20:35;101410.75;;;4.24;56.54
68654;BME280;55636;51.108;13.622;2023-01-04T02:22:04;101403.56;;;4.23;56.55
68654;BME280;55636;51.108;13.622;2023-01-04T02:24:05;101394.91;;;4.20;56.61
68654;BME280;55636;51.108;13.622;2023-01-04T02:26:42;101397.84;;;4.18;56.69
68654;BME280;55636;51.108;13.622;2023-01-04T02:27:52;101392.72;;;4.15;56.82
68654;BME280;55636;51.108;13.622;2023-01-04T02:31:44;101382.78;;;4.07;56.73
68654;BME280;55636;51.108;13.622;2023-01-04T02:34:42;101375.97;;;4.03;56.77
68654;BME280;55636;51.108;13.622;2023-01-04T02:35:56;101379.94;;;4.01;56.79
68654;BME280;55636;51.108;13.622;2023-01-04T02:37:25;101361.19;;;3.98;56.91
68654;BME280;55636;51.108;13.622;2023-01-04T02:38:41;101369.78;;;3.95;56.90
68654;BME280;55636;51.108;13.622;2023-01-04T02:40:12;101369.13;;;3.92;57.02
68654;BME280;55636;51.108;13.622;2023-01-04T02:41:45;101370.34;;;3.90;56.93
68654;BME280;55636;51.108;13.622;2023-01-04T02:43:25;101366.97;;;3.88;57.02
68654;BME280;55636;51.108;13.622;2023-01-04T02:44:57;101362.91;;;3.84;57.06
68654;BME280;55636;51.108;13.622;2023-01-04T02:46:07;101358.88;;;3.80;57.01
68654;BME280;55636;51.108;13.622;2023-01-04T02:47:16;101364.53;;;3.78;57.11
68654;BME280;55636;51.108;13.622;2023-01-04T02:48:19;101350.38;;;3.74;57.21
68654;BME280;55636;51.108;13.622;2023-01-04T02:49:42;101354.34;;;3.72;57.11
68654;BME280;55636;51.108;13.622;2023-01-04T02:51:25;101348.44;;;3.68;57.25
68654;BME280;55636;51.108;13.622;2023-01-04T02:52:28;101347.97;;;3.65;57.35
68654;BME280;55636;51.108;13.622;2023-01-04T02:53:34;101349.00;;;3.64;57.30
68654;BME280;55636;51.108;13.622;2023-01-04T02:54:38;101350.03;;;3.63;57.45
68654;BME280;55636;51.108;13.622;2023-01-04T02:56:02;101344.94;;;3.59;57.32
68654;BME280;55636;51.108;13.622;2023-01-04T02:57:18;101343.44;;;3.57;57.52
68654;BME280;55636;51.108;13.622;2023-01-04T03:03:08;101336.19;;;3.49;57.57
68654;BME280;55636;51.108;13.622;2023-01-04T03:04:46;101340.16;;;3.47;57.46
68654;BME280;55636;51.108;13.622;2023-01-04T03:06:20;101327.06;;;3.42;57.71
68654;BME280;55636;51.108;13.622;2023-01-04T03:07:26;101323.69;;;3.40;57.63
68654;BME280;55636;51.108;13.622;2023-01-04T03:08:40;101321.97;;;3.39;57.71
68654;BME280;55636;51.108;13.622;2023-01-04T03:09:48;101317.75;;;3.36;57.84
68654;BME280;55636;51.108;13.622;2023-01-04T03:11:00;101320.66;;;3.35;57.96
68654;BME280;55636;51.108;13.622;2023-01-04T03:12:10;101312.84;;;3.32;57.82
68654;BME280;55636;51.108;13.622;2023-01-04T03:13:41;101316.78;;;3.29;57.75
68654;BME280;55636;51.108;13.622;2023-01-04T03:14:50;101322.25;;;3.29;57.78
68654;BME280;55636;51.108;13.622;2023-01-04T03:15:56;101316.78;;;3.29;57.75
68654;BME280;55636;51.108;13.622;2023-01-04T03:17:07;101312.75;;;3.25;57.78
68654;BME280;55636;51.108;13.622;2023-01-04T03:18:25;101306.44;;;3.24;57.95
68654;BME280;55636;51.108;13.622;2023-01-04T03:19:30;101306.44;;;3.24;57.84
68654;BME280;55636;51.108;13.622;2023-01-04T03:21:12;101296.75;;;3.22;57.92
68654;BME280;55636;51.108;13.622;2023-01-04T03:22:20;101293.19;;;3.21;58.00
68654;BME280;55636;51.108;13.622;2023-01-04T03:23:43;101295.25;;;3.19;57.93
68654;BME280;55636;51.108;13.622;2023-01-04T03:25:07;101298.16;;;3.18;57.93
68654;BME280;55636;51.108;13.622;2023-01-04T03:26:31;101295.78;;;3.15;58.12
68654;BME280;55636;51.108;13.622;2023-01-04T03:27:54;101304.19;;;3.13;58.14
68654;BME280;55636;51.108;13.622;2023-01-04T03:29:42;101296.19;;;3.12;58.01
68654;BME280;55636;51.108;13.622;2023-01-04T03:31:11;101287.16;;;3.11;57.99
68654;BME280;55636;51.108;13.622;2023-01-04T03:32:42;101280.00;;;3.10;58.14
68654;BME280;55636;51.108;13.622;2023-01-04T03:34:04;101279.50;;;3.06;58.17
68654;BME280;55636;51.108;13.622;2023-01-04T03:35:37;101285.16;;;3.05;58.19
68654;BME280;55636;51.108;13.622;2023-01-04T03:36:50;101274.59;;;3.02;58.31
68654;BME280;55636;51.108;13.622;2023-01-04T03:38:05;101275.66;;;3.01;58.33
68654;BME280;55636;51.108;13.622;2023-01-04T03:41:13;101272.94;;;3.01;58.30
68654;BME280;55636;51.108;13.622;2023-01-04T03:42:54;101257.59;;;3.00;58.43
68654;BME280;55636;51.108;13.622;2023-01-04T03:44:30;101265.97;;;2.98;58.28
68654;BME280;55636;51.108;13.622;2023-01-04T03:45:58;101261.34;;;2.99;58.36
68654;BME280;55636;51.108;13.622;2023-01-04T03:47:27;101256.25;;;2.96;58.44
68654;BME280;55636;51.108;13.622;2023-01-04T03:49:04;101260.03;;;2.95;58.68
68654;BME280;55636;51.108;13.622;2023-01-04T03:50:24;101252.03;;;2.93;58.51
68654;BME280;55636;51.108;13.622;2023-01-04T03:51:32;101248.44;;;2.92;58.65
68654;BME280;55636;51.108;13.622;2023-01-04T03:52:37;101246.75;;;2.91;58.44
68654;BME280;55636;51.108;13.622;2023-01-04T03:53:51;101240.63;;;2.89;58.65
68654;BME280;55636;51.108;13.622;2023-01-04T03:54:56;101242.53;;;2.89;58.65
68654;BME280;55636;51.108;13.622;2023-01-04T03:56:01;101237.06;;;2.89;58.69
68654;BME280;55636;51.108;13.622;2023-01-04T03:57:07;101238.09;;;2.88;58.53
68654;BME280;55636;51.108;13.622;2023-01-04T03:58:10;101228.59;;;2.84;58.71
68654;BME280;55636;51.108;13.622;2023-01-04T03:59:12;101227.72;;;2.83;58.75
68654;BME280;55636;51.108;13.622;2023-01-04T04:00:17;101229.25;;;2.86;58.75
68654;BME280;55636;51.108;13.622;2023-01-04T04:01:22;101219.34;;;2.85;58.71
68654;BME280;55636;51.108;13.622;2023-01-04T04:02:29;101225.66;;;2.85;58.73
68654;BME280;55636;51.108;13.622;2023-01-04T04:03:31;101226.69;;;2.84;58.72
68654;BME280;55636;51.108;13.622;2023-01-04T04:04:53;101238.66;;;2.83;58.69
68654;BME280;55636;51.108;13.622;2023-01-04T04:06:13;101228.75;;;2.82;58.64
68654;BME280;55636;51.108;13.622;2023-01-04T04:07:34;101229.81;;;2.81;58.63
68654;BME280;55636;51.108;13.622;2023-01-04T04:08:55;101224.72;;;2.78;58.63
68654;BME280;55636;51.108;13.622;2023-01-04T04:09:57;101222.66;;;2.80;58.66
68654;BME280;55636;51.108;13.622;2023-01-04T04:11:01;101214.47;;;2.80;58.77
68654;BME280;55636;51.108;13.622;2023-01-04T04:12:24;101211.94;;;2.79;58.64
68654;BME280;55636;51.108;13.622;2023-01-04T04:13:26;101208.34;;;2.78;58.69
68654;BME280;55636;51.108;13.622;2023-01-04T04:14:28;101210.03;;;2.79;58.66
68654;BME280;55636;51.108;13.622;2023-01-04T04:15:30;101214.66;;;2.79;58.62
68654;BME280;55636;51.108;13.622;2023-01-04T04:16:32;101211.22;;;2.76;58.74
68654;BME280;55636;51.108;13.622;2023-01-04T04:17:35;101215.66;;;2.77;58.76
68654;BME280;55636;51.108;13.622;2023-01-04T04:18:37;101205.78;;;2.76;58.93
68654;BME280;55636;51.108;13.622;2023-01-04T04:19:39;101213.13;;;2.76;58.83
68654;BME280;55636;51.108;13.622;2023-01-04T04:20:41;101205.97;;;2.75;58.81
68654;BME280;55636;51.108;13.622;2023-01-04T04:21:43;101199.69;;;2.74;58.95
68654;BME280;55636;51.108;13.622;2023-01-04T04:22:46;101195.44;;;2.72;58.97
68654;BME280;55636;51.108;13.622;2023-01-04T04:23:48;101187.91;;;2.74;58.79
68654;BME280;55636;51.108;13.622;2023-01-04T04:24:50;101192.53;;;2.73;58.92
68654;BME280;55636;51.108;13.622;2023-01-04T04:25:52;101194.38;;;2.73;59.15
68654;BME280;55636;51.108;13.622;2023-01-04T04:26:55;101186.19;;;2.73;58.85
68654;BME280;55636;51.108;13.622;2023-01-04T04:27:57;101189.97;;;2.72;58.96
68654;BME280;55636;51.108;13.622;2023-01-04T04:28:59;101185.56;;;2.71;59.00
68654;BME280;55636;51.108;13.622;2023-01-04T04:30:02;101185.56;;;2.71;58.96
68654;BME280;55636;51.108;13.622;2023-01-04T04:31:05;101178.41;;;2.70;59.12
68654;BME280;55636;51.108;13.622;2023-01-04T04:32:07;101187.41;;;2.70;59.31
68654;BME280;55636;51.108;13.622;2023-01-04T04:33:10;101181.13;;;2.70;59.07
68654;BME280;55636;51.108;13.622;2023-01-04T04:34:13;101181.13;;;2.70;59.25
68654;BME280;55636;51.108;13.622;2023-01-04T04:35:15;101188.28;;;2.71;59.22
68654;BME280;55636;51.108;13.622;2023-01-04T04:36:18;101188.47;;;2.69;59.42
68654;BME280;55636;51.108;13.622;2023-01-04T04:37:20;101181.31;;;2.68;59.42
68654;BME280;55636;51.108;13.622;2023-01-04T04:38:22;101178.78;;;2.67;59.34
68654;BME280;55636;51.108;13.622;2023-01-04T04:39:24;101171.44;;;2.67;59.37
68654;BME280;55636;51.108;13.622;2023-01-04T04:40:27;101172.47;;;2.66;59.47
68654;BME280;55636;51.108;13.622;2023-01-04T04:41:48;101169.25;;;2.63;59.51
68654;BME280;55636;51.108;13.622;2023-01-04T04:42:50;101179.16;;;2.64;59.54
68654;BME280;55636;51.108;13.622;2023-01-04T04:43:54;101175.56;;;2.63;59.70
68654;BME280;55636;51.108;13.622;2023-01-04T04:44:56;101174.72;;;2.63;59.63
68654;BME280;55636;51.108;13.622;2023-01-04T04:45:58;101171.16;;;2.62;59.77
68654;BME280;55636;51.108;13.622;2023-01-04T04:47:01;101171.16;;;2.62;59.84
68654;BME280;55636;51.108;13.622;2023-01-04T04:48:03;101162.28;;;2.60;59.91
68654;BME280;55636;51.108;13.622;2023-01-04T04:49:06;101165.03;;;2.60;59.95
68654;BME280;55636;51.108;13.622;2023-01-04T04:50:08;101158.72;;;2.59;59.83
68654;BME280;55636;51.108;13.622;2023-01-04T04:51:10;101156.00;;;2.59;59.84
68654;BME280;55636;51.108;13.622;2023-01-04T04:52:12;101145.09;;;2.59;59.79
68654;BME280;55636;51.108;13.622;2023-01-04T04:53:15;101145.28;;;2.58;60.03
68654;BME280;55636;51.108;13.622;2023-01-04T04:54:19;101147.34;;;2.56;60.12
68654;BME280;55636;51.108;13.622;2023-01-04T04:55:22;101149.03;;;2.57;60.12
68654;BME280;55636;51.108;13.622;2023-01-04T04:56:24;101151.09;;;2.55;60.23
68654;BME280;55636;51.108;13.622;2023-01-04T04:57:27;101150.94;;;2.56;60.00
68654;BME280;55636;51.108;13.622;2023-01-04T04:58:29;101151.97;;;2.55;60.22
68654;BME280;55636;51.108;13.622;2023-01-04T04:59:31;101156.75;;;2.53;60.32
68654;BME280;55636;51.108;13.622;2023-01-04T05:00:34;101145.84;;;2.53;60.20
68654;BME280;55636;51.108;13.622;2023-01-04T05:01:36;101146.50;;;2.55;60.31
68654;BME280;55636;51.108;13.622;2023-01-04T05:02:39;101144.81;;;2.54;60.44
68654;BME280;55636;51.108;13.622;2023-01-04T05:03:41;101143.78;;;2.55;60.30
68654;BME280;55636;51.108;13.622;2023-01-04T05:04:43;101133.91;;;2.54;60.45
68654;BME280;55636;51.108;13.622;2023-01-04T05:05:47;101140.19;;;2.55;60.50
68654;BME280;55636;51.108;13.622;2023-01-04T05:06:49;101134.72;;;2.55;60.52
68654;BME280;55636;51.108;13.622;2023-01-04T05:07:52;101129.28;;;2.55;60.68
68654;BME280;55636;51.108;13.622;2023-01-04T05:08:54;101129.28;;;2.55;60.56
68654;BME280;55636;51.108;13.622;2023-01-04T05:09:56;101135.59;;;2.55;60.76
68654;BME280;55636;51.108;13.622;2023-01-04T05:11:04;101130.13;;;2.55;60.66
68654;BME280;55636;51.108;13.622;2023-01-04T05:12:11;101127.41;;;2.55;60.89
68654;BME280;55636;51.108;13.622;2023-01-04T05:13:32;101124.50;;;2.57;60.74
68654;BME280;55636;51.108;13.622;2023-01-04T05:14:35;101115.47;;;2.56;60.70
68654;BME280;55636;51.108;13.622;2023-01-04T05:15:46;101119.03;;;2.57;60.95
68654;BME280;55636;51.108;13.622;2023-01-04T05:16:48;101118.19;;;2.56;60.87
68654;BME280;55636;51.108;13.622;2023-01-04T05:17:51;101112.75;;;2.56;60.99
68654;BME280;55636;51.108;13.622;2023-01-04T05:18:53;101126.19;;;2.58;61.00
68654;BME280;55636;51.108;13.622;2023-01-04T05:19:55;101117.81;;;2.59;61.11
68654;BME280;55636;51.108;13.622;2023-01-04T05:20:57;101112.34;;;2.59;61.34
68654;BME280;55636;51.108;13.622;2023-01-04T05:21:59;101106.22;;;2.57;61.25
68654;BME280;55636;51.108;13.622;2023-01-04T05:23:02;101108.59;;;2.60;61.20
68654;BME280;55636;51.108;13.622;2023-01-04T05:24:06;101105.88;;;2.60;61.26
68654;BME280;55636;51.108;13.622;2023-01-04T05:25:08;101106.69;;;2.61;61.39
68654;BME280;55636;51.108;13.622;2023-01-04T05:26:11;101103.78;;;2.63;61.16
68654;BME280;55636;51.108;13.622;2023-01-04T05:27:16;101097.50;;;2.62;61.17
68654;BME280;55636;51.108;13.622;2023-01-04T05:28:18;101091.84;;;2.64;61.26
68654;BME280;55636;51.108;13.622;2023-01-04T05:29:20;101084.50;;;2.64;61.29
68654;BME280;55636;51.108;13.622;2023-01-04T05:30:41;101079.91;;;2.65;61.42
68654;BME280;55636;51.108;13.622;2023-01-04T05:31:52;101083.66;;;2.64;61.35
68654;BME280;55636;51.108;13.622;2023-01-04T05:32:55;101072.53;;;2.65;61.41
68654;BME280;55636;51.108;13.622;2023-01-04T05:33:57;101077.16;;;2.65;61.31
68654;BME280;55636;51.108;13.622;2023-01-04T05:35:00;101066.72;;;2.68;61.24
68654;BME280;55636;51.108;13.622;2023-01-04T05:36:03;101071.31;;;2.68;61.19
68654;BME280;55636;51.108;13.622;2023-01-04T05:37:05;101064.81;;;2.69;61.23
68654;BME280;55636;51.108;13.622;2023-01-04T05:38:07;101072.19;;;2.68;61.28
68654;BME280;55636;51.108;13.622;2023-01-04T05:39:09;101071.16;;;2.69;61.52
68654;BME280;55636;51.108;13.622;2023-01-04T05:40:12;101071.97;;;2.70;61.34
68654;BME280;55636;51.108;13.622;2023-01-04T05:41:14;101063.81;;;2.70;61.30
68654;BME280;55636;51.108;13.622;2023-01-04T05:42:35;101070.97;;;2.71;61.44
68654;BME280;55636;51.108;13.622;2023-01-04T05:43:37;101062.78;;;2.71;61.32
68654;BME280;55636;51.108;13.622;2023-01-04T05:44:40;101057.31;;;2.71;61.47
68654;BME280;55636;51.108;13.622;2023-01-04T05:45:43;101052.88;;;2.70;61.54
68654;BME280;55636;51.108;13.622;2023-01-04T05:46:48;101059.19;;;2.70;61.65
68654;BME280;55636;51.108;13.622;2023-01-04T05:47:51;101056.84;;;2.67;61.71
68654;BME280;55636;51.108;13.622;2023-01-04T05:48:53;101048.66;;;2.67;61.71
68654;BME280;55636;51.108;13.622;2023-01-04T05:49:56;101051.38;;;2.67;61.67
68654;BME280;55636;51.108;13.622;2023-01-04T05:50:58;101040.66;;;2.66;61.84
68654;BME280;55636;51.108;13.622;2023-01-04T05:52:00;101041.31;;;2.68;61.85
68654;BME280;55636;51.108;13.622;2023-01-04T05:53:04;101044.91;;;2.68;62.04
68654;BME280;55636;51.108;13.622;2023-01-04T05:54:06;101034.81;;;2.69;61.97
68654;BME280;55636;51.108;13.622;2023-01-04T05:55:09;101041.97;;;2.70;61.99
68654;BME280;55636;51.108;13.622;2023-01-04T05:56:11;101037.53;;;2.69;61.85
68654;BME280;55636;51.108;13.622;2023-01-04T05:57:13;101034.63;;;2.70;61.99
68654;BME280;55636;51.108;13.622;2023-01-04T05:58:16;101035.47;;;2.71;61.98
68654;BME280;55636;51.108;13.622;2023-01-04T05:59:18;101031.06;;;2.70;61.96
68654;BME280;55636;51.108;13.622;2023-01-04T06:00:20;101026.25;;;2.72;61.96
68654;BME280;55636;51.108;13.622;2023-01-04T06:01:22;101017.03;;;2.73;61.92
68654;BME280;55636;51.108;13.622;2023-01-04T06:02:27;101014.97;;;2.75;61.76
68654;BME280;55636;51.108;13.622;2023-01-04T06:03:30;101022.94;;;2.76;61.79
68654;BME280;55636;51.108;13.622;2023-01-04T06:04:33;101014.97;;;2.75;62.01
68654;BME280;55636;51.108;13.622;2023-01-04T06:05:37;101010.34;;;2.75;62.10
68654;BME280;55636;51.108;13.622;2023-01-04T06:06:40;101008.25;;;2.77;61.84
68654;BME280;55636;51.108;13.622;2023-01-04T06:07:42;101006.56;;;2.76;61.81
68654;BME280;55636;51.108;13.622;2023-01-04T06:08:44;101009.13;;;2.78;62.04
68654;BME280;55636;51.108;13.622;2023-01-04T06:09:46;101006.19;;;2.80;62.12